Airfield :







YOU CAN JOIN US ON...

 
LOGIN :

Register | Disclaimer

   EN    FR    IT 

 









Legend :    VFR   Marginal VFR   IFR   Intensive IFR   Very Intensive IFR
Visi :
Ceiling :
>= 8 km
>= 3000ft
5 to 8 km
1000 to 3000 ft
1500m to 5 km
500 to 1000 ft
800 to 1500m
200 to 500 ft
< 800m
< 200 ft
Symbols :   Thunderstorms  Fog  Heavy snow  Heavy precipitations  Wind > 20 kt






- Airport Elevation : 133 ft
- IATA code : BED


KBED - Laurence G Hanscom Field

CURRENT METAR :
  • 241151Z 00000KT 10SM CLR M03/M07 A3003 RMK AO2 SLP184 T10331067 11006 21050 56001

EXPIRED METARs :
  • 241051Z AUTO 00000KT 10SM CLR M04/M08 A3003 RMK AO2 SLP184 T10441078
  • 240951Z AUTO 00000KT 10SM CLR M04/M08 A3003 RMK AO2 SLP183 T10441078

TAF KBED
Valid from the 24 at 12:00 until the 25 at 12:00 UTC


241134Z 2412/2512 00000KT P6SM SKC
FM241800 22010G20KT P6SM SKC
FM241900 21009KT P6SM SKC
FM250000 20005KT P6SM BKN200
FM250300 20003KT P6SM OVC100
FM251100 00000KT P6SM OVC080



MET'MAP, your aeronautical weather chart ! - Copyright ORBIFLY December 2007 - Disclaimer

ORBIFLY MET'MAP TEAM :

Programming & Development : Alexandra Zaïnal
Concept & original design : Baudouin d'Aumeries
Assistance for programming : Marc-Olivier Méhu
Technical & hardware support : Manuel Goepfert

Contact : metmap@orbifly.com




SOURCES & CREDITS :

   NOAA